sensor_id;sensor_type;location;lat;lon;timestamp;temperature;humidity
10390;DHT22;5241;47.830;12.972;2022-10-29T00:00:21;15.60;99.90
10390;DHT22;5241;47.830;12.972;2022-10-29T00:02:47;15.60;99.90
10390;DHT22;5241;47.830;12.972;2022-10-29T00:05:12;15.50;99.90
10390;DHT22;5241;47.830;12.972;2022-10-29T00:07:38;15.50;99.90
10390;DHT22;5241;47.830;12.972;2022-10-29T00:10:04;15.50;99.90
10390;DHT22;5241;47.830;12.972;2022-10-29T00:12:29;15.50;99.90
10390;DHT22;5241;47.830;12.972;2022-10-29T00:14:55;15.50;99.90
10390;DHT22;5241;47.830;12.972;2022-10-29T00:17:21;15.50;99.90
10390;DHT22;5241;47.830;12.972;2022-10-29T00:19:46;15.50;99.90
10390;DHT22;5241;47.830;12.972;2022-10-29T00:22:13;15.50;99.90
10390;DHT22;5241;47.830;12.972;2022-10-29T00:24:39;15.50;99.90
10390;DHT22;5241;47.830;12.972;2022-10-29T00:27:04;15.60;99.90
10390;DHT22;5241;47.830;12.972;2022-10-29T00:29:30;15.60;99.90
10390;DHT22;5241;47.830;12.972;2022-10-29T00:31:55;15.60;99.90
10390;DHT22;5241;47.830;12.972;2022-10-29T00:34:21;15.50;99.90
10390;DHT22;5241;47.830;12.972;2022-10-29T00:36:46;15.50;99.90
10390;DHT22;5241;47.830;12.972;2022-10-29T00:39:14;15.60;99.90
10390;DHT22;5241;47.830;12.972;2022-10-29T00:41:40;15.60;99.90
10390;DHT22;5241;47.830;12.972;2022-10-29T00:46:54;15.70;99.90
10390;DHT22;5241;47.830;12.972;2022-10-29T00:49:22;15.60;99.90
10390;DHT22;5241;47.830;12.972;2022-10-29T00:51:49;15.60;99.90
10390;DHT22;5241;47.830;12.972;2022-10-29T00:54:15;15.60;99.90
10390;DHT22;5241;47.830;12.972;2022-10-29T00:56:58;15.60;99.90
10390;DHT22;5241;47.830;12.972;2022-10-29T00:59:25;15.60;99.90
10390;DHT22;5241;47.830;12.972;2022-10-29T01:01:51;15.60;99.90
10390;DHT22;5241;47.830;12.972;2022-10-29T01:04:17;15.70;99.90
10390;DHT22;5241;47.830;12.972;2022-10-29T01:06:43;15.70;99.90
10390;DHT22;5241;47.830;12.972;2022-10-29T01:09:09;15.60;99.90
10390;DHT22;5241;47.830;12.972;2022-10-29T01:11:50;15.60;99.90
10390;DHT22;5241;47.830;12.972;2022-10-29T01:20:31;15.30;99.90
10390;DHT22;5241;47.830;12.972;2022-10-29T01:29:02;15.30;99.90
10390;DHT22;5241;47.830;12.972;2022-10-29T01:32:00;15.30;99.90
10390;DHT22;5241;47.830;12.972;2022-10-29T01:37:27;15.20;99.90
10390;DHT22;5241;47.830;12.972;2022-10-29T01:42:30;15.10;99.90
10390;DHT22;5241;47.830;12.972;2022-10-29T01:45:24;15.00;99.90
10390;DHT22;5241;47.830;12.972;2022-10-29T01:48:15;15.00;99.90
10390;DHT22;5241;47.830;12.972;2022-10-29T01:50:45;15.00;99.90
10390;DHT22;5241;47.830;12.972;2022-10-29T01:53:12;15.00;99.90
10390;DHT22;5241;47.830;12.972;2022-10-29T01:55:38;15.00;99.90
10390;DHT22;5241;47.830;12.972;2022-10-29T01:58:05;15.00;99.90
10390;DHT22;5241;47.830;12.972;2022-10-29T02:00:57;15.00;99.90
10390;DHT22;5241;47.830;12.972;2022-10-29T02:06:50;14.80;99.90
10390;DHT22;5241;47.830;12.972;2022-10-29T02:12:15;14.90;99.90
10390;DHT22;5241;47.830;12.972;2022-10-29T02:14:49;14.90;99.90
10390;DHT22;5241;47.830;12.972;2022-10-29T02:17:16;14.90;99.90
10390;DHT22;5241;47.830;12.972;2022-10-29T02:19:41;14.90;99.90
10390;DHT22;5241;47.830;12.972;2022-10-29T02:22:07;15.00;99.90
10390;DHT22;5241;47.830;12.972;2022-10-29T02:24:33;14.90;99.90
10390;DHT22;5241;47.830;12.972;2022-10-29T02:26:58;14.80;99.90
10390;DHT22;5241;47.830;12.972;2022-10-29T02:29:24;14.70;99.90
10390;DHT22;5241;47.830;12.972;2022-10-29T02:31:49;14.60;99.90
10390;DHT22;5241;47.830;12.972;2022-10-29T02:34:15;14.20;99.90
10390;DHT22;5241;47.830;12.972;2022-10-29T02:36:41;13.70;99.90
10390;DHT22;5241;47.830;12.972;2022-10-29T02:39:06;13.30;99.90
10390;DHT22;5241;47.830;12.972;2022-10-29T02:41:32;13.00;99.90
10390;DHT22;5241;47.830;12.972;2022-10-29T02:43:57;12.80;99.90
10390;DHT22;5241;47.830;12.972;2022-10-29T02:46:24;12.50;99.90
10390;DHT22;5241;47.830;12.972;2022-10-29T02:48:50;12.40;99.90
10390;DHT22;5241;47.830;12.972;2022-10-29T02:51:16;12.30;99.90
10390;DHT22;5241;47.830;12.972;2022-10-29T02:53:42;12.30;99.90
10390;DHT22;5241;47.830;12.972;2022-10-29T02:56:08;12.40;99.90
10390;DHT22;5241;47.830;12.972;2022-10-29T02:58:34;12.30;99.90
10390;DHT22;5241;47.830;12.972;2022-10-29T03:01:00;12.20;99.90
10390;DHT22;5241;47.830;12.972;2022-10-29T03:03:25;12.10;99.90
10390;DHT22;5241;47.830;12.972;2022-10-29T03:05:51;12.00;99.90
10390;DHT22;5241;47.830;12.972;2022-10-29T03:08:17;11.90;99.90
10390;DHT22;5241;47.830;12.972;2022-10-29T03:10:43;11.80;99.90
10390;DHT22;5241;47.830;12.972;2022-10-29T03:13:09;11.70;99.90
10390;DHT22;5241;47.830;12.972;2022-10-29T03:15:35;11.60;99.90
10390;DHT22;5241;47.830;12.972;2022-10-29T03:18:01;11.40;99.90
10390;DHT22;5241;47.830;12.972;2022-10-29T03:20:27;11.30;99.90
10390;DHT22;5241;47.830;12.972;2022-10-29T03:22:52;11.40;99.90
10390;DHT22;5241;47.830;12.972;2022-10-29T03:25:18;11.30;99.90
10390;DHT22;5241;47.830;12.972;2022-10-29T03:27:44;11.20;99.90
10390;DHT22;5241;47.830;12.972;2022-10-29T03:30:12;11.10;99.90
10390;DHT22;5241;47.830;12.972;2022-10-29T03:32:42;11.00;99.90
10390;DHT22;5241;47.830;12.972;2022-10-29T03:35:09;11.00;99.90
10390;DHT22;5241;47.830;12.972;2022-10-29T03:37:35;10.90;99.90
10390;DHT22;5241;47.830;12.972;2022-10-29T03:40:02;10.80;99.90
10390;DHT22;5241;47.830;12.972;2022-10-29T03:42:28;10.70;99.90
10390;DHT22;5241;47.830;12.972;2022-10-29T03:44:56;10.70;99.90
10390;DHT22;5241;47.830;12.972;2022-10-29T03:47:22;10.70;99.90
10390;DHT22;5241;47.830;12.972;2022-10-29T03:49:47;10.60;99.90
10390;DHT22;5241;47.830;12.972;2022-10-29T03:52:13;10.60;99.90
10390;DHT22;5241;47.830;12.972;2022-10-29T03:54:38;10.50;99.90
10390;DHT22;5241;47.830;12.972;2022-10-29T03:57:04;10.50;99.90
10390;DHT22;5241;47.830;12.972;2022-10-29T03:59:30;10.40;99.90
10390;DHT22;5241;47.830;12.972;2022-10-29T04:01:55;10.50;99.90
10390;DHT22;5241;47.830;12.972;2022-10-29T04:04:21;10.50;99.90
10390;DHT22;5241;47.830;12.972;2022-10-29T04:06:46;10.40;99.90
10390;DHT22;5241;47.830;12.972;2022-10-29T04:09:12;10.30;99.90
10390;DHT22;5241;47.830;12.972;2022-10-29T04:11:37;10.20;99.90
10390;DHT22;5241;47.830;12.972;2022-10-29T04:14:03;10.10;99.90
10390;DHT22;5241;47.830;12.972;2022-10-29T04:16:28;10.00;99.90
10390;DHT22;5241;47.830;12.972;2022-10-29T04:18:54;10.00;99.90
10390;DHT22;5241;47.830;12.972;2022-10-29T04:21:19;10.00;99.90
10390;DHT22;5241;47.830;12.972;2022-10-29T04:23:45;10.00;99.90
10390;DHT22;5241;47.830;12.972;2022-10-29T04:26:10;10.00;99.90
10390;DHT22;5241;47.830;12.972;2022-10-29T04:28:36;10.00;99.90
10390;DHT22;5241;47.830;12.972;2022-10-29T04:31:10;10.00;99.90
10390;DHT22;5241;47.830;12.972;2022-10-29T04:33:36;10.10;99.90
10390;DHT22;5241;47.830;12.972;2022-10-29T04:36:02;10.00;99.90
10390;DHT22;5241;47.830;12.972;2022-10-29T04:38:28;10.00;99.90
10390;DHT22;5241;47.830;12.972;2022-10-29T04:40:59;10.00;99.90
10390;DHT22;5241;47.830;12.972;2022-10-29T04:43:26;10.00;99.90
10390;DHT22;5241;47.830;12.972;2022-10-29T04:45:53;10.10;99.90
10390;DHT22;5241;47.830;12.972;2022-10-29T04:48:20;10.10;99.90
10390;DHT22;5241;47.830;12.972;2022-10-29T04:50:45;10.00;99.90
10390;DHT22;5241;47.830;12.972;2022-10-29T04:53:11;9.90;99.90
10390;DHT22;5241;47.830;12.972;2022-10-29T04:55:37;9.80;99.90
10390;DHT22;5241;47.830;12.972;2022-10-29T04:58:07;9.80;99.90
10390;DHT22;5241;47.830;12.972;2022-10-29T05:00:36;9.80;99.90
10390;DHT22;5241;47.830;12.972;2022-10-29T05:03:01;9.80;99.90
10390;DHT22;5241;47.830;12.972;2022-10-29T05:05:27;9.80;99.90
10390;DHT22;5241;47.830;12.972;2022-10-29T05:08:00;9.80;99.90
10390;DHT22;5241;47.830;12.972;2022-10-29T05:10:28;9.70;99.90
10390;DHT22;5241;47.830;12.972;2022-10-29T05:13:01;9.60;99.90
10390;DHT22;5241;47.830;12.972;2022-10-29T05:15:28;9.70;99.90
10390;DHT22;5241;47.830;12.972;2022-10-29T05:17:54;9.70;99.90
10390;DHT22;5241;47.830;12.972;2022-10-29T05:20:21;9.70;99.90
10390;DHT22;5241;47.830;12.972;2022-10-29T05:22:46;9.70;99.90
10390;DHT22;5241;47.830;12.972;2022-10-29T05:25:12;9.80;99.90
10390;DHT22;5241;47.830;12.972;2022-10-29T05:27:38;9.70;99.90
10390;DHT22;5241;47.830;12.972;2022-10-29T05:30:04;9.70;99.90
10390;DHT22;5241;47.830;12.972;2022-10-29T05:32:30;9.80;99.90
10390;DHT22;5241;47.830;12.972;2022-10-29T05:34:56;9.80;99.90
10390;DHT22;5241;47.830;12.972;2022-10-29T05:37:21;9.90;99.90
10390;DHT22;5241;47.830;12.972;2022-10-29T05:39:50;10.00;99.90
10390;DHT22;5241;47.830;12.972;2022-10-29T05:42:16;9.90;99.90
10390;DHT22;5241;47.830;12.972;2022-10-29T05:44:41;10.00;99.90
10390;DHT22;5241;47.830;12.972;2022-10-29T05:47:07;10.00;99.90
10390;DHT22;5241;47.830;12.972;2022-10-29T05:49:32;10.00;99.90
10390;DHT22;5241;47.830;12.972;2022-10-29T05:51:58;10.10;99.90
10390;DHT22;5241;47.830;12.972;2022-10-29T05:54:24;10.30;99.90
10390;DHT22;5241;47.830;12.972;2022-10-29T05:56:49;10.60;99.90
10390;DHT22;5241;47.830;12.972;2022-10-29T05:59:15;10.80;99.90
10390;DHT22;5241;47.830;12.972;2022-10-29T06:01:40;11.20;99.90
10390;DHT22;5241;47.830;12.972;2022-10-29T06:04:06;11.40;99.90
10390;DHT22;5241;47.830;12.972;2022-10-29T06:06:31;11.80;99.90
10390;DHT22;5241;47.830;12.972;2022-10-29T06:08:58;12.30;99.90
10390;DHT22;5241;47.830;12.972;2022-10-29T06:11:24;12.60;99.90
10390;DHT22;5241;47.830;12.972;2022-10-29T06:13:49;12.90;99.90
10390;DHT22;5241;47.830;12.972;2022-10-29T06:16:15;13.10;99.90
10390;DHT22;5241;47.830;12.972;2022-10-29T06:18:40;13.30;99.90
10390;DHT22;5241;47.830;12.972;2022-10-29T06:21:06;13.40;99.90
10390;DHT22;5241;47.830;12.972;2022-10-29T06:23:31;13.40;99.90
10390;DHT22;5241;47.830;12.972;2022-10-29T06:26:00;13.40;99.90
10390;DHT22;5241;47.830;12.972;2022-10-29T06:28:27;13.40;99.90
10390;DHT22;5241;47.830;12.972;2022-10-29T06:30:53;13.50;99.90
10390;DHT22;5241;47.830;12.972;2022-10-29T06:33:19;13.50;99.90
10390;DHT22;5241;47.830;12.972;2022-10-29T06:35:45;13.60;99.90
10390;DHT22;5241;47.830;12.972;2022-10-29T06:38:11;13.80;99.90
10390;DHT22;5241;47.830;12.972;2022-10-29T06:40:38;14.00;99.90
10390;DHT22;5241;47.830;12.972;2022-10-29T06:43:05;14.10;99.90
10390;DHT22;5241;47.830;12.972;2022-10-29T06:45:32;14.30;99.90
10390;DHT22;5241;47.830;12.972;2022-10-29T06:47:57;14.40;99.90
10390;DHT22;5241;47.830;12.972;2022-10-29T06:50:23;14.50;99.90
10390;DHT22;5241;47.830;12.972;2022-10-29T06:55:25;14.70;99.90
10390;DHT22;5241;47.830;12.972;2022-10-29T06:57:58;14.80;99.90
10390;DHT22;5241;47.830;12.972;2022-10-29T07:00:25;14.90;99.90
10390;DHT22;5241;47.830;12.972;2022-10-29T07:02:50;15.00;99.90
10390;DHT22;5241;47.830;12.972;2022-10-29T07:05:16;15.00;99.90
10390;DHT22;5241;47.830;12.972;2022-10-29T07:07:42;15.10;99.90
10390;DHT22;5241;47.830;12.972;2022-10-29T07:10:08;15.10;99.90
10390;DHT22;5241;47.830;12.972;2022-10-29T07:12:40;15.20;99.90
10390;DHT22;5241;47.830;12.972;2022-10-29T07:15:06;15.20;99.90
10390;DHT22;5241;47.830;12.972;2022-10-29T07:17:32;15.20;99.90
10390;DHT22;5241;47.830;12.972;2022-10-29T07:19:57;15.30;99.90
10390;DHT22;5241;47.830;12.972;2022-10-29T07:22:23;15.30;99.90
10390;DHT22;5241;47.830;12.972;2022-10-29T07:24:48;15.40;99.90
10390;DHT22;5241;47.830;12.972;2022-10-29T07:27:14;15.50;99.90
10390;DHT22;5241;47.830;12.972;2022-10-29T07:29:40;15.50;99.90
10390;DHT22;5241;47.830;12.972;2022-10-29T07:32:05;15.60;99.90
10390;DHT22;5241;47.830;12.972;2022-10-29T07:34:31;15.70;99.90
10390;DHT22;5241;47.830;12.972;2022-10-29T07:36:57;15.70;99.90
10390;DHT22;5241;47.830;12.972;2022-10-29T07:39:22;15.80;99.90
10390;DHT22;5241;47.830;12.972;2022-10-29T07:41:48;15.90;99.90
10390;DHT22;5241;47.830;12.972;2022-10-29T07:44:13;16.10;99.90
10390;DHT22;5241;47.830;12.972;2022-10-29T07:46:39;16.40;99.90
10390;DHT22;5241;47.830;12.972;2022-10-29T07:49:04;16.50;99.90
10390;DHT22;5241;47.830;12.972;2022-10-29T07:51:30;16.60;99.90
10390;DHT22;5241;47.830;12.972;2022-10-29T07:53:56;16.80;99.90
10390;DHT22;5241;47.830;12.972;2022-10-29T07:56:21;16.90;99.90
10390;DHT22;5241;47.830;12.972;2022-10-29T07:58:47;17.00;99.90
10390;DHT22;5241;47.830;12.972;2022-10-29T08:01:12;17.00;99.90
10390;DHT22;5241;47.830;12.972;2022-10-29T08:03:38;17.00;99.90
10390;DHT22;5241;47.830;12.972;2022-10-29T08:06:03;16.90;99.90
10390;DHT22;5241;47.830;12.972;2022-10-29T08:08:29;16.90;99.90
10390;DHT22;5241;47.830;12.972;2022-10-29T08:11:00;16.90;99.90
10390;DHT22;5241;47.830;12.972;2022-10-29T08:13:26;17.00;99.90
10390;DHT22;5241;47.830;12.972;2022-10-29T08:15:51;17.20;99.90
10390;DHT22;5241;47.830;12.972;2022-10-29T08:18:17;17.40;99.90
10390;DHT22;5241;47.830;12.972;2022-10-29T08:20:43;17.70;99.90
10390;DHT22;5241;47.830;12.972;2022-10-29T08:23:09;17.80;99.90
10390;DHT22;5241;47.830;12.972;2022-10-29T08:25:35;17.80;99.90
10390;DHT22;5241;47.830;12.972;2022-10-29T08:28:06;17.80;99.90
10390;DHT22;5241;47.830;12.972;2022-10-29T08:30:32;17.80;99.90
10390;DHT22;5241;47.830;12.972;2022-10-29T08:32:59;17.90;99.90
10390;DHT22;5241;47.830;12.972;2022-10-29T08:35:25;17.90;99.90
10390;DHT22;5241;47.830;12.972;2022-10-29T08:37:50;18.00;99.90
10390;DHT22;5241;47.830;12.972;2022-10-29T08:49:19;19.30;99.90
10390;DHT22;5241;47.830;12.972;2022-10-29T08:51:53;19.40;99.90
10390;DHT22;5241;47.830;12.972;2022-10-29T08:54:21;19.40;99.90
10390;DHT22;5241;47.830;12.972;2022-10-29T08:56:52;19.70;99.90
10390;DHT22;5241;47.830;12.972;2022-10-29T08:59:23;20.10;99.90
10390;DHT22;5241;47.830;12.972;2022-10-29T09:01:50;20.50;99.90
10390;DHT22;5241;47.830;12.972;2022-10-29T09:04:34;20.70;99.90
10390;DHT22;5241;47.830;12.972;2022-10-29T09:15:29;21.30;99.90
10390;DHT22;5241;47.830;12.972;2022-10-29T09:21:17;21.60;99.40
10390;DHT22;5241;47.830;12.972;2022-10-29T09:34:47;22.70;94.70
10390;DHT22;5241;47.830;12.972;2022-10-29T09:37:21;22.60;93.30
10390;DHT22;5241;47.830;12.972;2022-10-29T09:39:47;22.60;91.90
10390;DHT22;5241;47.830;12.972;2022-10-29T09:42:33;22.60;92.50
10390;DHT22;5241;47.830;12.972;2022-10-29T09:45:02;23.00;91.60
10390;DHT22;5241;47.830;12.972;2022-10-29T09:50:16;23.20;89.60
10390;DHT22;5241;47.830;12.972;2022-10-29T09:52:44;23.40;89.40
10390;DHT22;5241;47.830;12.972;2022-10-29T09:55:29;23.50;88.20
10390;DHT22;5241;47.830;12.972;2022-10-29T09:57:59;23.90;86.00
10390;DHT22;5241;47.830;12.972;2022-10-29T10:00:28;24.10;86.20
10390;DHT22;5241;47.830;12.972;2022-10-29T10:05:35;24.30;82.00
10390;DHT22;5241;47.830;12.972;2022-10-29T10:08:11;24.80;81.30
10390;DHT22;5241;47.830;12.972;2022-10-29T10:11:00;25.30;79.70
10390;DHT22;5241;47.830;12.972;2022-10-29T10:13:37;25.30;76.90
10390;DHT22;5241;47.830;12.972;2022-10-29T10:16:22;24.90;78.20
10390;DHT22;5241;47.830;12.972;2022-10-29T10:18:48;24.30;78.30
10390;DHT22;5241;47.830;12.972;2022-10-29T10:21:28;24.10;79.30
10390;DHT22;5241;47.830;12.972;2022-10-29T10:23:55;23.80;79.90
10390;DHT22;5241;47.830;12.972;2022-10-29T10:29:14;24.20;79.50
10390;DHT22;5241;47.830;12.972;2022-10-29T10:31:47;24.70;80.00
10390;DHT22;5241;47.830;12.972;2022-10-29T10:34:23;25.60;77.40
10390;DHT22;5241;47.830;12.972;2022-10-29T10:37:03;25.20;76.80
10390;DHT22;5241;47.830;12.972;2022-10-29T10:39:40;24.90;77.20
10390;DHT22;5241;47.830;12.972;2022-10-29T10:45:14;25.30;77.00
10390;DHT22;5241;47.830;12.972;2022-10-29T10:47:45;26.30;73.90
10390;DHT22;5241;47.830;12.972;2022-10-29T10:52:41;27.00;71.30
10390;DHT22;5241;47.830;12.972;2022-10-29T10:55:14;26.60;71.70
10390;DHT22;5241;47.830;12.972;2022-10-29T10:57:47;26.30;72.40
10390;DHT22;5241;47.830;12.972;2022-10-29T11:00:20;25.80;72.40
10390;DHT22;5241;47.830;12.972;2022-10-29T11:03:16;25.10;73.40
10390;DHT22;5241;47.830;12.972;2022-10-29T11:05:57;24.80;74.40
10390;DHT22;5241;47.830;12.972;2022-10-29T11:08:33;24.70;75.40
10390;DHT22;5241;47.830;12.972;2022-10-29T11:11:14;24.30;77.10
10390;DHT22;5241;47.830;12.972;2022-10-29T11:13:42;24.50;75.90
10390;DHT22;5241;47.830;12.972;2022-10-29T11:16:19;24.40;78.30
10390;DHT22;5241;47.830;12.972;2022-10-29T11:18:52;24.40;77.20
10390;DHT22;5241;47.830;12.972;2022-10-29T11:21:32;24.90;76.10
10390;DHT22;5241;47.830;12.972;2022-10-29T11:24:10;25.50;75.30
10390;DHT22;5241;47.830;12.972;2022-10-29T11:29:46;26.30;70.90
10390;DHT22;5241;47.830;12.972;2022-10-29T11:35:03;26.50;71.00
10390;DHT22;5241;47.830;12.972;2022-10-29T11:40:41;25.90;70.60
10390;DHT22;5241;47.830;12.972;2022-10-29T11:43:10;25.60;70.80
10390;DHT22;5241;47.830;12.972;2022-10-29T11:51:02;24.50;74.70
10390;DHT22;5241;47.830;12.972;2022-10-29T11:54:08;24.50;79.20
10390;DHT22;5241;47.830;12.972;2022-10-29T11:56:56;24.10;80.40
10390;DHT22;5241;47.830;12.972;2022-10-29T11:59:48;23.90;79.30
10390;DHT22;5241;47.830;12.972;2022-10-29T12:18:49;24.20;81.40
10390;DHT22;5241;47.830;12.972;2022-10-29T12:24:19;24.20;79.50
10390;DHT22;5241;47.830;12.972;2022-10-29T12:32:25;24.60;78.60
10390;DHT22;5241;47.830;12.972;2022-10-29T12:34:58;24.70;77.40
10390;DHT22;5241;47.830;12.972;2022-10-29T12:40:20;24.90;76.60
10390;DHT22;5241;47.830;12.972;2022-10-29T12:42:48;25.00;75.60
10390;DHT22;5241;47.830;12.972;2022-10-29T12:47:53;24.70;78.40
10390;DHT22;5241;47.830;12.972;2022-10-29T12:56:11;24.30;79.90
10390;DHT22;5241;47.830;12.972;2022-10-29T12:58:43;24.40;79.10
10390;DHT22;5241;47.830;12.972;2022-10-29T13:06:42;24.40;79.70
10390;DHT22;5241;47.830;12.972;2022-10-29T13:09:20;24.40;76.90
10390;DHT22;5241;47.830;12.972;2022-10-29T13:11:48;24.40;76.70
10390;DHT22;5241;47.830;12.972;2022-10-29T13:14:42;24.30;78.20
10390;DHT22;5241;47.830;12.972;2022-10-29T13:17:38;24.20;79.00
10390;DHT22;5241;47.830;12.972;2022-10-29T13:20:20;23.90;78.80
10390;DHT22;5241;47.830;12.972;2022-10-29T13:30:41;23.60;82.60
10390;DHT22;5241;47.830;12.972;2022-10-29T13:36:34;23.30;81.80
10390;DHT22;5241;47.830;12.972;2022-10-29T13:41:20;23.50;80.40
10390;DHT22;5241;47.830;12.972;2022-10-29T13:44:03;23.60;80.00
10390;DHT22;5241;47.830;12.972;2022-10-29T13:49:46;23.50;80.70
10390;DHT22;5241;47.830;12.972;2022-10-29T13:52:20;23.60;78.80
10390;DHT22;5241;47.830;12.972;2022-10-29T13:54:50;23.60;80.30
10390;DHT22;5241;47.830;12.972;2022-10-29T14:05:16;22.90;80.00
10390;DHT22;5241;47.830;12.972;2022-10-29T14:07:49;22.70;81.50
10390;DHT22;5241;47.830;12.972;2022-10-29T14:10:35;22.50;82.10
10390;DHT22;5241;47.830;12.972;2022-10-29T14:15:39;22.00;84.60
10390;DHT22;5241;47.830;12.972;2022-10-29T14:18:24;21.90;84.90
10390;DHT22;5241;47.830;12.972;2022-10-29T14:20:54;21.80;86.50
10390;DHT22;5241;47.830;12.972;2022-10-29T14:23:20;21.60;88.30
10390;DHT22;5241;47.830;12.972;2022-10-29T14:25:50;21.50;87.70
10390;DHT22;5241;47.830;12.972;2022-10-29T14:28:23;21.50;89.20
10390;DHT22;5241;47.830;12.972;2022-10-29T14:34:00;21.50;91.10
10390;DHT22;5241;47.830;12.972;2022-10-29T14:36:43;21.50;93.70
10390;DHT22;5241;47.830;12.972;2022-10-29T14:39:32;21.30;96.30
10390;DHT22;5241;47.830;12.972;2022-10-29T14:42:00;21.30;97.20
10390;DHT22;5241;47.830;12.972;2022-10-29T14:44:28;21.30;98.20
10390;DHT22;5241;47.830;12.972;2022-10-29T14:47:19;21.40;98.70
10390;DHT22;5241;47.830;12.972;2022-10-29T14:49:48;21.30;99.90
10390;DHT22;5241;47.830;12.972;2022-10-29T14:52:34;21.30;99.90
10390;DHT22;5241;47.830;12.972;2022-10-29T14:55:07;21.20;99.90
10390;DHT22;5241;47.830;12.972;2022-10-29T14:57:38;21.00;99.90
10390;DHT22;5241;47.830;12.972;2022-10-29T15:00:05;20.90;99.90
10390;DHT22;5241;47.830;12.972;2022-10-29T15:02:36;20.80;99.90
10390;DHT22;5241;47.830;12.972;2022-10-29T15:05:19;20.60;99.90
10390;DHT22;5241;47.830;12.972;2022-10-29T15:07:46;20.50;99.90
10390;DHT22;5241;47.830;12.972;2022-10-29T15:10:23;20.30;99.90
10390;DHT22;5241;47.830;12.972;2022-10-29T15:12:50;20.20;99.90
10390;DHT22;5241;47.830;12.972;2022-10-29T15:23:03;19.40;99.90
10390;DHT22;5241;47.830;12.972;2022-10-29T15:25:33;19.30;99.90
10390;DHT22;5241;47.830;12.972;2022-10-29T15:28:00;19.20;99.90
10390;DHT22;5241;47.830;12.972;2022-10-29T15:30:34;19.00;99.90
10390;DHT22;5241;47.830;12.972;2022-10-29T15:33:02;18.90;99.90
10390;DHT22;5241;47.830;12.972;2022-10-29T15:35:32;18.80;99.90
10390;DHT22;5241;47.830;12.972;2022-10-29T15:37:58;18.70;99.90
10390;DHT22;5241;47.830;12.972;2022-10-29T15:40:24;18.60;99.90
10390;DHT22;5241;47.830;12.972;2022-10-29T15:42:51;18.60;99.90
10390;DHT22;5241;47.830;12.972;2022-10-29T15:45:25;18.40;99.90
10390;DHT22;5241;47.830;12.972;2022-10-29T15:50:39;18.00;99.90
10390;DHT22;5241;47.830;12.972;2022-10-29T15:53:05;17.80;99.90
10390;DHT22;5241;47.830;12.972;2022-10-29T15:55:35;17.70;99.90
10390;DHT22;5241;47.830;12.972;2022-10-29T15:58:14;17.50;99.90
10390;DHT22;5241;47.830;12.972;2022-10-29T16:00:40;17.30;99.90
10390;DHT22;5241;47.830;12.972;2022-10-29T16:03:13;17.20;99.90
10390;DHT22;5241;47.830;12.972;2022-10-29T16:05:40;17.10;99.90
10390;DHT22;5241;47.830;12.972;2022-10-29T16:08:08;17.00;99.90
10390;DHT22;5241;47.830;12.972;2022-10-29T16:10:38;16.90;99.90
10390;DHT22;5241;47.830;12.972;2022-10-29T16:13:06;16.80;99.90
10390;DHT22;5241;47.830;12.972;2022-10-29T16:15:33;16.70;99.90
10390;DHT22;5241;47.830;12.972;2022-10-29T16:17:58;16.70;99.90
10390;DHT22;5241;47.830;12.972;2022-10-29T16:20:24;16.60;99.90
10390;DHT22;5241;47.830;12.972;2022-10-29T16:22:49;16.60;99.90
10390;DHT22;5241;47.830;12.972;2022-10-29T16:25:23;16.60;99.90
10390;DHT22;5241;47.830;12.972;2022-10-29T16:27:50;16.40;99.90
10390;DHT22;5241;47.830;12.972;2022-10-29T16:30:17;16.30;99.90
10390;DHT22;5241;47.830;12.972;2022-10-29T16:32:43;16.30;99.90
10390;DHT22;5241;47.830;12.972;2022-10-29T16:35:15;16.10;99.90
10390;DHT22;5241;47.830;12.972;2022-10-29T16:37:42;16.00;99.90
10390;DHT22;5241;47.830;12.972;2022-10-29T16:40:08;15.90;99.90
10390;DHT22;5241;47.830;12.972;2022-10-29T16:42:35;16.00;99.90
10390;DHT22;5241;47.830;12.972;2022-10-29T16:45:02;15.90;99.90
10390;DHT22;5241;47.830;12.972;2022-10-29T16:47:27;15.80;99.90
10390;DHT22;5241;47.830;12.972;2022-10-29T16:49:53;15.70;99.90
10390;DHT22;5241;47.830;12.972;2022-10-29T16:52:19;15.70;99.90
10390;DHT22;5241;47.830;12.972;2022-10-29T16:54:44;15.70;99.90
10390;DHT22;5241;47.830;12.972;2022-10-29T16:57:10;15.70;99.90
10390;DHT22;5241;47.830;12.972;2022-10-29T16:59:36;15.70;99.90
10390;DHT22;5241;47.830;12.972;2022-10-29T17:02:04;15.60;99.90
10390;DHT22;5241;47.830;12.972;2022-10-29T17:04:30;15.60;99.90
10390;DHT22;5241;47.830;12.972;2022-10-29T17:06:56;15.50;99.90
10390;DHT22;5241;47.830;12.972;2022-10-29T17:09:22;15.40;99.90
10390;DHT22;5241;47.830;12.972;2022-10-29T17:11:47;15.50;99.90
10390;DHT22;5241;47.830;12.972;2022-10-29T17:14:13;15.50;99.90
10390;DHT22;5241;47.830;12.972;2022-10-29T17:16:39;15.40;99.90
10390;DHT22;5241;47.830;12.972;2022-10-29T17:19:04;15.30;99.90
10390;DHT22;5241;47.830;12.972;2022-10-29T17:21:31;15.10;99.90
10390;DHT22;5241;47.830;12.972;2022-10-29T17:23:58;15.00;99.90
10390;DHT22;5241;47.830;12.972;2022-10-29T17:26:23;15.00;99.90
10390;DHT22;5241;47.830;12.972;2022-10-29T17:28:49;14.90;99.90
10390;DHT22;5241;47.830;12.972;2022-10-29T17:31:14;14.80;99.90
10390;DHT22;5241;47.830;12.972;2022-10-29T17:33:40;14.90;99.90
10390;DHT22;5241;47.830;12.972;2022-10-29T17:36:15;14.90;99.90
10390;DHT22;5241;47.830;12.972;2022-10-29T17:38:42;14.80;99.90
10390;DHT22;5241;47.830;12.972;2022-10-29T17:41:08;14.80;99.90
10390;DHT22;5241;47.830;12.972;2022-10-29T17:43:33;14.80;99.90
10390;DHT22;5241;47.830;12.972;2022-10-29T17:45:59;14.70;99.90
10390;DHT22;5241;47.830;12.972;2022-10-29T17:48:25;14.60;99.90
10390;DHT22;5241;47.830;12.972;2022-10-29T17:50:54;14.70;99.90
10390;DHT22;5241;47.830;12.972;2022-10-29T17:53:21;14.80;99.90
10390;DHT22;5241;47.830;12.972;2022-10-29T17:55:47;14.90;99.90
10390;DHT22;5241;47.830;12.972;2022-10-29T17:58:14;14.90;99.90
10390;DHT22;5241;47.830;12.972;2022-10-29T18:00:40;15.10;99.90
10390;DHT22;5241;47.830;12.972;2022-10-29T18:03:05;15.10;99.90
10390;DHT22;5241;47.830;12.972;2022-10-29T18:05:31;15.00;99.90
10390;DHT22;5241;47.830;12.972;2022-10-29T18:07:56;14.90;99.90
10390;DHT22;5241;47.830;12.972;2022-10-29T18:10:22;14.90;99.90
10390;DHT22;5241;47.830;12.972;2022-10-29T18:12:48;14.90;99.90
10390;DHT22;5241;47.830;12.972;2022-10-29T18:15:13;14.90;99.90
10390;DHT22;5241;47.830;12.972;2022-10-29T18:17:39;14.90;99.90
10390;DHT22;5241;47.830;12.972;2022-10-29T18:20:05;15.00;99.90
10390;DHT22;5241;47.830;12.972;2022-10-29T18:22:31;15.10;99.90
10390;DHT22;5241;47.830;12.972;2022-10-29T18:24:57;15.30;99.90
10390;DHT22;5241;47.830;12.972;2022-10-29T18:27:22;15.30;99.90
10390;DHT22;5241;47.830;12.972;2022-10-29T18:29:48;15.30;99.90
10390;DHT22;5241;47.830;12.972;2022-10-29T18:32:14;15.30;99.90
10390;DHT22;5241;47.830;12.972;2022-10-29T18:34:39;15.30;99.90